createdAt,value
2022-11-23T00:02:40.153Z,39.17
2022-11-23T00:06:45.014Z,38.83
2022-11-23T00:10:49.874Z,45.33
2022-11-23T00:14:54.736Z,37.10
2022-11-23T00:19:01.546Z,43.37
2022-11-23T00:23:06.375Z,43.67
2022-11-23T00:27:11.338Z,43.93
2022-11-23T00:31:19.414Z,41.10
2022-11-23T00:35:24.484Z,47.47
2022-11-23T00:39:29.806Z,42.47
2022-11-23T00:43:35.150Z,41.20
2022-11-23T00:47:40.101Z,46.07
2022-11-23T00:51:44.946Z,38.73
2022-11-23T00:55:54.940Z,43.77
2022-11-23T01:00:00.286Z,41.50
2022-11-23T01:04:07.788Z,40.63
2022-11-23T01:08:12.631Z,43.77
2022-11-23T01:12:17.573Z,43.90
2022-11-23T01:16:29.429Z,41.03
2022-11-23T01:20:35.115Z,37.03
2022-11-23T01:24:39.926Z,39.73
2022-11-23T01:28:45.083Z,43.67
2022-11-23T01:32:50.011Z,39.20
2022-11-23T01:36:54.850Z,42.00
2022-11-23T01:40:59.812Z,38.47
2022-11-23T01:45:34.048Z,48.77
2022-11-23T01:49:46.433Z,40.10
2022-11-23T01:53:55.006Z,38.77
2022-11-23T01:58:00.392Z,40.17
2022-11-23T02:02:05.426Z,39.03
2022-11-23T02:06:15.802Z,40.03
2022-11-23T02:10:22.938Z,39.50
2022-11-23T02:14:28.433Z,36.60
2022-11-23T02:18:39.471Z,36.03
2022-11-23T02:23:28.348Z,37.10
2022-11-23T02:27:33.472Z,39.00
2022-11-23T02:31:38.490Z,31.00
2022-11-23T02:35:52.679Z,36.70
2022-11-23T02:39:59.687Z,39.47
2022-11-23T02:44:08.429Z,35.40
2022-11-23T02:48:13.278Z,34.83
2022-11-23T02:52:19.117Z,42.67
2022-11-23T02:56:23.912Z,36.07
2022-11-23T03:00:28.866Z,41.33
2022-11-23T03:04:33.823Z,41.50
2022-11-23T03:08:38.804Z,38.03
2022-11-23T03:12:43.712Z,39.87
2022-11-23T03:16:48.654Z,35.30
2022-11-23T03:20:53.507Z,38.97
2022-11-23T03:24:58.833Z,44.87
2022-11-23T03:29:03.738Z,37.30
2022-11-23T03:33:08.604Z,37.67
2022-11-23T03:37:13.471Z,35.53
2022-11-23T03:41:18.307Z,36.90
2022-11-23T03:45:23.123Z,38.50
2022-11-23T03:49:27.948Z,32.63
2022-11-23T03:53:32.908Z,33.93
2022-11-23T03:57:37.698Z,28.00
2022-11-23T04:01:42.564Z,34.13
2022-11-23T04:05:47.379Z,32.73
2022-11-23T04:09:52.339Z,36.30
2022-11-23T04:13:57.163Z,35.70
2022-11-23T04:18:02.084Z,36.37
2022-11-23T04:22:06.902Z,40.17
2022-11-23T04:26:11.799Z,35.50
2022-11-23T04:30:16.687Z,32.37
2022-11-23T04:34:21.550Z,40.23
2022-11-23T04:38:26.392Z,30.23
2022-11-23T04:42:31.347Z,31.53
2022-11-23T04:46:36.285Z,35.37
2022-11-23T04:50:44.649Z,31.77
2022-11-23T04:54:51.594Z,29.97
2022-11-23T04:58:56.470Z,29.47
2022-11-23T05:03:01.757Z,28.77
2022-11-23T05:07:06.659Z,30.40
2022-11-23T05:11:11.584Z,30.83
2022-11-23T05:15:16.503Z,26.13
2022-11-23T05:19:21.335Z,32.30
2022-11-23T05:23:26.244Z,34.57
2022-11-23T05:27:31.166Z,29.03
2022-11-23T05:31:35.987Z,29.37
2022-11-23T05:35:40.962Z,31.73
2022-11-23T06:32:53.137Z,19.37
2022-11-23T06:36:57.948Z,23.93
2022-11-23T06:41:03.916Z,27.00
2022-11-23T06:45:09.931Z,27.23
2022-11-23T06:49:14.739Z,22.50
2022-11-23T06:53:19.767Z,23.13
2022-11-23T06:57:24.624Z,24.73
2022-11-23T07:01:29.594Z,21.47
2022-11-23T07:05:34.490Z,25.63
2022-11-23T07:09:39.493Z,22.07
2022-11-23T07:13:44.320Z,23.40
2022-11-23T07:17:49.162Z,25.70
2022-11-23T07:21:54.461Z,21.87
2022-11-23T07:26:00.198Z,25.30
2022-11-23T07:30:05.933Z,22.73
2022-11-23T07:34:11.230Z,21.93
2022-11-23T07:38:16.120Z,18.80
2022-11-23T07:42:43.195Z,22.23
2022-11-23T07:46:45.867Z,22.13
2022-11-23T07:50:54.753Z,26.37
2022-11-23T07:55:00.874Z,26.10
2022-11-23T07:59:05.770Z,22.27
2022-11-23T08:03:30.587Z,21.20
2022-11-23T08:07:35.675Z,26.37
2022-11-23T08:11:40.951Z,25.33
2022-11-23T08:15:51.841Z,24.87
2022-11-23T08:19:59.168Z,19.47
2022-11-23T08:24:04.178Z,21.40
2022-11-23T08:28:09.301Z,19.33
2022-11-23T08:32:14.233Z,31.47
2022-11-23T08:36:19.293Z,24.43
2022-11-23T08:40:25.846Z,23.93
2022-11-23T08:44:31.174Z,25.63
2022-11-23T08:48:36.259Z,25.60
2022-11-23T08:52:41.172Z,23.87
2022-11-23T08:56:46.229Z,20.50
2022-11-23T09:00:51.063Z,19.60
2022-11-23T09:04:55.945Z,20.20
2022-11-23T09:09:01.228Z,22.50
2022-11-23T09:13:06.209Z,27.17
2022-11-23T09:17:11.076Z,17.67
2022-11-23T09:21:16.215Z,18.43
2022-11-23T09:25:22.542Z,17.93
2022-11-23T09:29:27.926Z,29.20
2022-11-23T09:33:32.849Z,27.77
2022-11-23T09:37:38.165Z,26.23
2022-11-23T09:42:16.817Z,28.50
2022-11-23T09:46:54.524Z,16.63
2022-11-23T09:51:12.390Z,22.27
2022-11-23T09:55:43.935Z,20.60
2022-11-23T10:00:12.226Z,20.03
2022-11-23T10:04:19.726Z,24.20
2022-11-23T10:08:45.766Z,24.90
2022-11-23T10:13:17.083Z,20.33
2022-11-23T10:17:52.312Z,20.63
2022-11-23T10:22:08.910Z,17.77
2022-11-23T10:26:21.659Z,23.80
2022-11-23T10:30:26.825Z,20.90
2022-11-23T10:34:37.460Z,16.97
2022-11-23T10:38:42.724Z,24.20
2022-11-23T10:42:54.563Z,22.47
2022-11-23T10:47:00.146Z,27.90
2022-11-23T10:51:31.026Z,23.43
2022-11-23T10:55:55.120Z,16.40
2022-11-23T11:00:10.544Z,19.67
2022-11-23T11:04:23.401Z,20.60
2022-11-23T11:08:33.364Z,16.03
2022-11-23T11:12:52.122Z,15.97
2022-11-23T11:16:58.404Z,16.40
2022-11-23T11:21:21.776Z,13.70
2022-11-23T11:25:33.042Z,18.97
2022-11-23T11:29:48.599Z,16.50
2022-11-23T11:34:07.960Z,16.50
2022-11-23T11:38:21.142Z,19.07
2022-11-23T11:42:42.101Z,17.97
2022-11-23T11:47:18.838Z,20.83
2022-11-23T11:51:43.340Z,22.83
2022-11-23T11:55:54.576Z,17.43
2022-11-23T12:00:03.978Z,19.20
2022-11-23T12:04:20.156Z,17.33
2022-11-23T12:09:16.294Z,19.13
2022-11-23T12:13:30.816Z,16.87
2022-11-23T12:17:44.029Z,24.30
2022-11-23T12:22:15.714Z,19.80
2022-11-23T12:26:28.439Z,15.87
2022-11-23T12:30:42.339Z,13.77
2022-11-23T12:35:13.806Z,13.60
2022-11-23T12:40:14.678Z,13.50
2022-11-23T12:45:01.273Z,13.33
2022-11-23T12:49:21.113Z,14.63
2022-11-23T12:53:50.741Z,16.37
2022-11-23T12:58:16.614Z,13.30
2022-11-23T13:03:24.066Z,14.10
2022-11-23T13:07:44.874Z,11.27
2022-11-23T13:12:12.155Z,11.93
2022-11-23T13:16:29.258Z,12.50
2022-11-23T13:20:45.799Z,14.93
2022-11-23T13:25:20.772Z,16.37
2022-11-23T13:29:50.319Z,13.57
2022-11-23T13:33:58.687Z,15.57
2022-11-23T13:38:03.447Z,12.20
2022-11-23T13:42:11.174Z,14.20
2022-11-23T13:46:23.345Z,13.00
2022-11-23T13:50:28.253Z,11.53
2022-11-23T13:54:33.619Z,11.70
2022-11-23T13:58:40.703Z,12.07
2022-11-23T14:02:45.607Z,12.40
2022-11-23T14:07:10.030Z,12.10
2022-11-23T14:11:20.905Z,11.17
2022-11-23T14:15:38.978Z,24.43
2022-11-23T14:20:28.347Z,15.80
2022-11-23T14:25:03.700Z,11.67
2022-11-23T14:29:26.489Z,12.93
2022-11-23T14:34:08.105Z,11.90
2022-11-23T14:38:33.634Z,9.13
2022-11-23T14:42:45.593Z,13.70
2022-11-23T14:47:05.690Z,13.77
2022-11-23T14:51:23.723Z,12.30
2022-11-23T14:55:30.698Z,11.30
2022-11-23T14:59:41.339Z,13.67
2022-11-23T15:03:59.974Z,13.30
2022-11-23T15:08:11.500Z,12.93
2022-11-23T15:12:42.647Z,12.17
2022-11-23T15:16:49.326Z,12.83
2022-11-23T15:20:54.675Z,12.97
2022-11-23T15:25:16.263Z,16.67
2022-11-23T15:29:38.680Z,12.73
2022-11-23T15:33:54.387Z,12.37
2022-11-23T15:38:00.929Z,15.10
2022-11-23T15:42:07.151Z,19.27
2022-11-23T15:46:14.332Z,13.57
2022-11-23T15:50:19.375Z,13.07
2022-11-23T15:54:28.871Z,11.30
2022-11-23T15:58:35.178Z,15.47
2022-11-23T16:02:40.128Z,11.53
2022-11-23T16:06:48.650Z,14.80
2022-11-23T16:10:54.874Z,13.37
2022-11-23T16:15:38.388Z,14.50
2022-11-23T16:19:52.047Z,15.20
2022-11-23T16:23:57.412Z,22.80
2022-11-23T16:28:23.649Z,17.80
2022-11-23T16:32:31.537Z,15.73
2022-11-23T16:36:36.523Z,13.33
2022-11-23T16:40:42.995Z,20.87
2022-11-23T16:44:47.861Z,15.30
2022-11-23T16:48:54.357Z,18.03
2022-11-23T16:53:16.062Z,13.70
2022-11-23T16:57:30.467Z,20.13
2022-11-23T17:01:37.615Z,18.00
2022-11-23T17:05:42.971Z,14.90
2022-11-23T17:09:47.878Z,15.60
2022-11-23T17:13:55.932Z,18.33
2022-11-23T17:18:00.791Z,18.33
2022-11-23T17:22:05.730Z,14.60
2022-11-23T17:26:35.504Z,15.97
2022-11-23T17:30:40.447Z,14.10
2022-11-23T17:34:45.342Z,15.43
2022-11-23T17:38:50.167Z,17.67
2022-11-23T17:42:55.067Z,11.13
2022-11-23T17:47:00.601Z,12.07
2022-11-23T17:51:05.647Z,19.70
2022-11-23T17:55:12.565Z,18.87
2022-11-23T17:59:18.881Z,11.80
2022-11-23T18:03:23.812Z,13.80
2022-11-23T18:07:28.815Z,18.50
2022-11-23T18:11:33.734Z,17.90
2022-11-23T18:15:38.661Z,14.33
2022-11-23T18:19:43.626Z,16.17
2022-11-23T18:23:48.551Z,16.43
2022-11-23T18:27:54.330Z,19.33
2022-11-23T18:31:59.251Z,16.50
2022-11-23T18:36:05.876Z,14.13
2022-11-23T18:40:11.681Z,21.10
2022-11-23T18:44:16.542Z,18.60
2022-11-23T18:48:21.702Z,20.70
2022-11-23T18:52:26.697Z,14.80
2022-11-23T18:56:31.654Z,20.50
2022-11-23T19:00:36.656Z,17.00
2022-11-23T19:04:41.572Z,16.17
2022-11-23T19:08:49.647Z,14.30
2022-11-23T19:12:54.512Z,16.73
2022-11-23T19:16:59.373Z,17.63
2022-11-23T19:21:19.857Z,16.83
2022-11-23T19:25:24.924Z,12.37
2022-11-23T19:29:30.141Z,15.40
2022-11-23T19:33:34.968Z,19.53
2022-11-23T19:37:39.872Z,21.23
2022-11-23T19:41:44.701Z,16.90
2022-11-23T19:46:01.084Z,18.03
2022-11-23T19:50:06.666Z,18.63
2022-11-23T19:54:11.613Z,21.40
2022-11-23T19:58:16.757Z,19.37
2022-11-23T20:02:25.053Z,16.73
2022-11-23T20:06:33.814Z,12.97
2022-11-23T20:10:38.727Z,14.87
2022-11-23T20:14:43.574Z,14.33
2022-11-23T20:18:54.740Z,15.70
2022-11-23T20:22:59.571Z,13.80
2022-11-23T20:27:04.392Z,16.60
2022-11-23T20:31:20.000Z,17.83
2022-11-23T20:35:25.550Z,17.40
2022-11-23T20:39:30.453Z,16.37
2022-11-23T20:43:35.345Z,16.07
2022-11-23T20:47:40.319Z,17.30
2022-11-23T20:51:45.205Z,17.13
2022-11-23T20:55:50.053Z,17.70
2022-11-23T20:59:55.031Z,16.33
2022-11-23T21:04:00.378Z,16.53
2022-11-23T21:08:05.231Z,20.13
2022-11-23T21:12:30.726Z,19.33
2022-11-23T21:16:49.131Z,19.77
2022-11-23T21:20:54.816Z,19.23
2022-11-23T21:25:00.153Z,16.13
2022-11-23T21:29:09.654Z,16.87
2022-11-23T21:33:14.494Z,16.67
2022-11-23T21:37:19.321Z,16.93
2022-11-23T21:41:24.266Z,13.67
2022-11-23T21:45:29.095Z,16.13
2022-11-23T21:49:33.942Z,17.30
2022-11-23T21:53:39.220Z,13.37
2022-11-23T21:57:44.088Z,16.17
2022-11-23T22:01:49.378Z,19.13
2022-11-23T22:05:58.492Z,17.53
2022-11-23T22:10:03.657Z,17.33
2022-11-23T22:14:12.690Z,18.13
2022-11-23T22:18:17.918Z,18.20
2022-11-23T22:22:22.748Z,18.10
2022-11-23T22:26:27.992Z,19.03
2022-11-23T22:30:32.920Z,15.80
2022-11-23T22:34:39.349Z,21.50
2022-11-23T22:38:45.147Z,17.40
2022-11-23T22:42:50.199Z,17.67
2022-11-23T22:46:55.047Z,16.73
2022-11-23T22:51:01.575Z,16.27
2022-11-23T22:55:06.840Z,19.43
2022-11-23T22:59:12.211Z,23.83
2022-11-23T23:03:17.284Z,17.37
2022-11-23T23:07:22.927Z,23.67
2022-11-23T23:11:30.408Z,18.83
2022-11-23T23:15:35.259Z,19.80
2022-11-23T23:19:40.249Z,15.17
2022-11-23T23:23:48.555Z,20.03
2022-11-23T23:27:53.511Z,15.93
2022-11-23T23:31:58.419Z,16.97
2022-11-23T23:36:19.761Z,17.03
2022-11-23T23:40:24.630Z,14.90
2022-11-23T23:44:29.644Z,18.97
2022-11-23T23:48:41.396Z,23.23
2022-11-23T23:52:46.360Z,19.67
2022-11-23T23:56:52.776Z,15.13
